Time,TemperatureF,DewpointF,PressureIn,WindDirection,WindDirectionDegrees,WindSpeedMPH,WindSpeedGustMPH,Humidity,HourlyPrecipIn,Conditions,Clouds,dailyrainin,SoftwareType,DateUTC
2013-07-10 09:54:00,79.5,75.0,29.93,NE,48,0.0,-999.0,86,-99.99,,,0.00,weatherlink.com 1.10,2013-07-10 13:54:00,
2013-07-10 10:04:00,79.7,75.0,29.93,NE,48,0.0,-999.0,85,-99.99,,,0.00,weatherlink.com 1.10,2013-07-10 14:04:00,
2013-07-10 10:20:00,79.9,75.0,29.93,NE,48,0.0,-999.0,85,-99.99,,,0.00,weatherlink.com 1.10,2013-07-10 14:20:00,
2013-07-10 10:35:00,81.0,75.0,29.93,NE,48,0.0,-999.0,83,-99.99,,,0.00,weatherlink.com 1.10,2013-07-10 14:35:00,
2013-07-10 10:50:00,82.1,76.0,29.92,North,360,0.0,-999.0,82,-99.99,,,0.00,weatherlink.com 1.10,2013-07-10 14:50:00,
2013-07-10 11:05:00,83.0,76.0,29.92,North,360,0.0,-999.0,80,-99.99,,,0.00,weatherlink.com 1.10,2013-07-10 15:05:00,
2013-07-10 11:20:00,82.5,76.0,29.91,North,360,0.0,-999.0,80,-99.99,,,0.00,weatherlink.com 1.10,2013-07-10 15:20:00,
2013-07-10 11:35:00,82.7,76.0,29.91,North,360,0.0,-999.0,81,-99.99,,,0.00,weatherlink.com 1.10,2013-07-10 15:35:00,
2013-07-10 11:50:00,82.7,77.0,29.90,North,360,0.0,-999.0,82,-99.99,,,0.00,weatherlink.com 1.10,2013-07-10 15:50:00,
2013-07-10 12:05:00,84.3,78.0,29.89,North,5,0.0,-999.0,80,-99.99,,,0.00,weatherlink.com 1.10,2013-07-10 16:05:00,
2013-07-10 12:20:00,84.9,77.0,29.88,North,5,0.0,-999.0,78,-99.99,,,0.00,weatherlink.com 1.10,2013-07-10 16:20:00,
2013-07-10 12:36:00,85.7,77.0,29.88,North,5,0.0,-999.0,76,-99.99,,,0.00,weatherlink.com 1.10,2013-07-10 16:36:00,
2013-07-10 12:51:00,86.7,77.0,29.88,SSE,157,0.0,-999.0,72,-99.99,,,0.00,weatherlink.com 1.10,2013-07-10 16:51:00,
2013-07-10 13:06:00,85.6,76.0,29.87,South,173,0.0,-999.0,72,-99.99,,,0.00,weatherlink.com 1.10,2013-07-10 17:06:00,
2013-07-10 13:21:00,83.8,76.0,29.86,South,173,0.0,-999.0,78,-99.99,,,0.00,weatherlink.com 1.10,2013-07-10 17:21:00,
2013-07-10 13:36:00,84.1,77.0,29.86,ENE,68,0.0,-999.0,80,-99.99,,,0.00,weatherlink.com 1.10,2013-07-10 17:36:00,
2013-07-10 13:51:00,85.6,77.0,29.85,South,169,0.0,-999.0,75,-99.99,,,0.00,weatherlink.com 1.10,2013-07-10 17:51:00,
2013-07-10 14:06:00,87.5,77.0,29.84,ENE,76,0.0,-999.0,71,-99.99,,,0.00,weatherlink.com 1.10,2013-07-10 18:06:00,
2013-07-10 14:21:00,85.7,77.0,29.85,South,188,0.0,-999.0,75,-99.99,,,0.00,weatherlink.com 1.10,2013-07-10 18:21:00,
2013-07-10 14:36:00,83.3,76.0,29.85,South,188,0.0,-999.0,79,-99.99,,,0.00,weatherlink.com 1.10,2013-07-10 18:36:00,
2013-07-10 14:51:00,81.5,75.0,29.84,South,188,0.0,-999.0,81,-99.99,,,0.00,weatherlink.com 1.10,2013-07-10 18:51:00,
2013-07-10 15:07:00,82.0,76.0,29.83,NW,309,0.0,-999.0,81,-99.99,,,0.00,weatherlink.com 1.10,2013-07-10 19:07:00,
2013-07-10 15:22:00,83.8,77.0,29.83,South,172,0.0,-999.0,80,-99.99,,,0.00,weatherlink.com 1.10,2013-07-10 19:22:00,
2013-07-10 15:37:00,85.2,77.0,29.83,SSE,156,0.0,-999.0,77,-99.99,,,0.00,weatherlink.com 1.10,2013-07-10 19:37:00,
2013-07-10 15:52:00,85.3,77.0,29.82,SSE,152,0.0,-999.0,77,-99.99,,,0.00,weatherlink.com 1.10,2013-07-10 19:52:00,
2013-07-10 16:07:00,85.6,77.0,29.82,South,177,0.0,-999.0,75,-99.99,,,0.00,weatherlink.com 1.10,2013-07-10 20:07:00,
2013-07-10 16:22:00,85.4,77.0,29.82,East,82,0.0,-999.0,75,-99.99,,,0.00,weatherlink.com 1.10,2013-07-10 20:22:00,
2013-07-10 16:37:00,85.0,77.0,29.81,East,82,0.0,-999.0,77,-99.99,,,0.00,weatherlink.com 1.10,2013-07-10 20:37:00,
2013-07-10 16:52:00,85.1,77.0,29.80,East,95,0.0,-999.0,76,-99.99,,,0.00,weatherlink.com 1.10,2013-07-10 20:52:00,
2013-07-10 17:07:00,84.9,77.0,29.80,WNW,294,0.0,-999.0,76,-99.99,,,0.00,weatherlink.com 1.10,2013-07-10 21:07:00,
2013-07-10 17:22:00,84.7,76.0,29.79,West,261,0.0,-999.0,75,-99.99,,,0.00,weatherlink.com 1.10,2013-07-10 21:22:00,
2013-07-10 17:37:00,83.8,75.0,29.79,ENE,64,0.0,-999.0,75,-99.99,,,0.00,weatherlink.com 1.10,2013-07-10 21:37:00,
2013-07-10 17:52:00,83.5,75.0,29.79,ENE,65,0.0,-999.0,75,-99.99,,,0.00,weatherlink.com 1.10,2013-07-10 21:52:00,
2013-07-10 18:08:00,83.9,76.0,29.79,ENE,64,0.0,-999.0,78,-99.99,,,0.00,weatherlink.com 1.10,2013-07-10 22:08:00,
2013-07-10 18:23:00,83.1,76.0,29.80,ENE,64,0.0,-999.0,79,-99.99,,,0.00,weatherlink.com 1.10,2013-07-10 22:23:00,
2013-07-10 18:38:00,82.5,76.0,29.80,ENE,64,0.0,-999.0,81,-99.99,,,0.00,weatherlink.com 1.10,2013-07-10 22:38:00,
2013-07-10 18:53:00,82.2,76.0,29.81,ENE,64,0.0,-999.0,81,-99.99,,,0.00,weatherlink.com 1.10,2013-07-10 22:53:00,
2013-07-10 19:08:00,81.6,76.0,29.82,ENE,65,0.0,-999.0,83,-99.99,,,0.00,weatherlink.com 1.10,2013-07-10 23:08:00,
2013-07-10 19:23:00,81.4,75.0,29.82,ENE,64,0.0,-999.0,82,-99.99,,,0.00,weatherlink.com 1.10,2013-07-10 23:23:00,
2013-07-10 19:38:00,81.5,75.0,29.82,ENE,64,0.0,-999.0,81,-99.99,,,0.00,weatherlink.com 1.10,2013-07-10 23:38:00,
2013-07-10 19:53:00,81.2,75.0,29.82,ENE,65,0.0,-999.0,80,-99.99,,,0.00,weatherlink.com 1.10,2013-07-10 23:53:00,
2013-07-10 20:08:00,80.8,75.0,29.83,ENE,64,0.0,-999.0,81,-99.99,,,0.00,weatherlink.com 1.10,2013-07-11 00:08:00,
2013-07-10 20:23:00,80.3,74.0,29.82,ENE,64,0.0,-999.0,82,-99.99,,,0.00,weatherlink.com 1.10,2013-07-11 00:23:00,
2013-07-10 20:38:00,79.8,75.0,29.82,ENE,64,0.0,-999.0,84,-99.99,,,0.00,weatherlink.com 1.10,2013-07-11 00:38:00,
2013-07-10 20:53:00,79.2,73.0,29.83,ENE,64,0.0,-999.0,82,-99.99,,,0.00,weatherlink.com 1.10,2013-07-11 00:53:00,
2013-07-10 21:08:00,78.9,73.0,29.83,ENE,64,0.0,-999.0,83,-99.99,,,0.00,weatherlink.com 1.10,2013-07-11 01:08:00,
2013-07-10 21:24:00,78.5,73.0,29.84,ENE,64,0.0,-999.0,84,-99.99,,,0.00,weatherlink.com 1.10,2013-07-11 01:24:00,
2013-07-10 21:39:00,78.0,73.0,29.84,ENE,64,0.0,-999.0,84,-99.99,,,0.00,weatherlink.com 1.10,2013-07-11 01:39:00,
2013-07-10 21:54:00,77.7,73.0,29.84,ENE,64,0.0,-999.0,84,-99.99,,,0.00,weatherlink.com 1.10,2013-07-11 01:54:00,